Time;durP1;ratioP1;P1;durP2;ratioP2;P2;SDS_P1;SDS_P2;PMS_P1;PMS_P2;Temp;Humidity;BMP_temperature;BMP_pressure;BME280_temperature;BME280_humidity;BME280_pressure;Samples;Min_cycle;Max_cycle;Signal;HPM_P1;HPM_P2
2024/01/24 00:00:32;;;;;;;7.35;3.30;;;;;;;1.19;78.79;94945.13;5103460;28;20055;-68
2024/01/24 00:02:57;;;;;;;8.90;3.08;;;;;;;1.19;78.66;94949.56;5103592;28;20020;-68
2024/01/24 00:05:23;;;;;;;8.48;3.17;;;;;;;1.15;78.82;94943.19;5103479;28;20241;-68
2024/01/24 00:07:48;;;;;;;10.05;3.25;;;;;;;1.17;78.76;94954.25;5103521;28;20027;-68
2024/01/24 00:10:14;;;;;;;10.30;3.72;;;;;;;1.18;78.91;94958.47;5103358;28;20016;-69
2024/01/24 00:12:39;;;;;;;6.70;3.55;;;;;;;1.27;78.14;94957.13;5103338;28;20008;-68
2024/01/24 00:15:05;;;;;;;10.85;3.00;;;;;;;1.22;78.29;94951.75;5103139;28;20061;-68
2024/01/24 00:17:30;;;;;;;4.47;2.33;;;;;;;1.30;78.02;94961.91;5103338;28;20057;-68
2024/01/24 00:19:56;;;;;;;6.93;2.67;;;;;;;1.31;77.89;94967.97;5102951;28;20024;-68
2024/01/24 00:22:21;;;;;;;6.07;2.47;;;;;;;1.33;77.63;94971.19;5103416;28;20026;-68
2024/01/24 00:24:46;;;;;;;8.65;2.90;;;;;;;1.38;77.60;94968.66;5103170;28;20083;-68
2024/01/24 00:27:12;;;;;;;8.25;2.65;;;;;;;1.34;77.32;94967.50;5102961;28;20058;-68
2024/01/24 00:29:37;;;;;;;7.57;3.60;;;;;;;1.39;77.50;94973.69;5103088;28;20055;-68
2024/01/24 00:32:03;;;;;;;5.53;2.65;;;;;;;1.39;77.16;94973.69;5102906;28;20066;-68
2024/01/24 00:34:28;;;;;;;4.78;2.67;;;;;;;1.43;76.59;94981.13;5102824;28;20027;-68
2024/01/24 00:36:54;;;;;;;5.68;2.30;;;;;;;1.38;76.84;94990.50;5102367;28;20052;-68
2024/01/24 00:39:19;;;;;;;7.55;2.45;;;;;;;1.31;76.71;94973.22;5102998;28;20020;-68
2024/01/24 00:41:46;;;;;;;6.20;2.50;;;;;;;1.28;76.94;94978.94;5102874;28;20249;-68
2024/01/24 00:44:12;;;;;;;8.07;3.17;;;;;;;1.31;76.77;94989.00;5102649;28;20113;-69
2024/01/24 00:46:37;;;;;;;7.95;2.72;;;;;;;1.22;77.01;94978.00;5102815;28;20060;-68
2024/01/24 00:49:03;;;;;;;8.50;2.75;;;;;;;1.20;76.97;94993.19;5102863;28;20030;-68
2024/01/24 00:51:28;;;;;;;7.65;2.63;;;;;;;1.17;77.08;94977.91;5102778;28;20024;-69
2024/01/24 00:53:53;;;;;;;10.60;3.42;;;;;;;1.11;77.04;94991.94;5102825;28;20031;-69
2024/01/24 00:56:19;;;;;;;10.80;3.15;;;;;;;1.14;77.25;94973.09;5102547;28;20126;-69
2024/01/24 00:58:45;;;;;;;7.05;2.90;;;;;;;1.13;77.48;94971.50;5102659;28;20421;-69
2024/01/24 01:01:10;;;;;;;7.00;2.90;;;;;;;1.09;76.96;94992.16;5102727;28;20044;-68
2024/01/24 01:03:36;;;;;;;6.53;3.15;;;;;;;1.13;76.92;94982.00;5102670;28;20016;-69
2024/01/24 01:06:02;;;;;;;6.03;2.65;;;;;;;1.11;76.93;94987.47;5102562;28;20050;-69
2024/01/24 01:08:27;;;;;;;6.22;2.47;;;;;;;1.08;77.19;94989.75;5102717;28;20026;-69
2024/01/24 01:10:52;;;;;;;8.00;3.00;;;;;;;1.08;77.14;94964.31;5102840;28;20020;-69
2024/01/24 01:13:18;;;;;;;6.28;2.67;;;;;;;1.11;77.29;94961.22;5102571;28;20031;-69
2024/01/24 01:15:43;;;;;;;10.15;4.45;;;;;;;1.15;77.10;94958.94;5102508;28;20040;-69
2024/01/24 01:18:09;;;;;;;6.93;3.00;;;;;;;1.10;77.32;94966.69;5102507;28;20095;-69
2024/01/24 01:20:34;;;;;;;7.15;3.38;;;;;;;1.12;77.20;94962.00;5102538;28;20111;-68
2024/01/24 01:23:00;;;;;;;7.53;3.47;;;;;;;1.04;77.60;94978.91;5102622;28;20030;-68
2024/01/24 01:25:25;;;;;;;6.05;2.65;;;;;;;1.03;77.40;94972.03;5102575;28;20035;-68
2024/01/24 01:27:51;;;;;;;7.95;3.05;;;;;;;1.00;77.74;94968.06;5102425;28;20393;-68
2024/01/24 01:30:16;;;;;;;6.88;3.13;;;;;;;0.97;78.09;94972.94;5102289;28;20119;-68
2024/01/24 01:32:43;;;;;;;7.18;3.55;;;;;;;0.98;78.11;94988.47;5102528;28;20047;-68
2024/01/24 01:35:09;;;;;;;5.30;2.72;;;;;;;0.98;78.43;94962.22;5102451;28;20020;-68
2024/01/24 01:37:37;;;;;;;9.32;3.40;;;;;;;0.97;78.28;94968.50;5102483;28;20077;-68
2024/01/24 01:40:04;;;;;;;7.25;3.90;;;;;;;0.94;78.43;94963.69;5101021;28;20032;-68
2024/01/24 01:42:30;;;;;;;8.82;3.95;;;;;;;1.02;78.26;94973.09;5102301;28;20195;-68
2024/01/24 01:44:55;;;;;;;9.32;4.20;;;;;;;0.94;78.80;94968.16;5102378;28;20042;-68
2024/01/24 01:47:21;;;;;;;8.18;3.15;;;;;;;0.97;78.59;94958.00;5104238;28;20268;-68
2024/01/24 01:49:47;;;;;;;10.13;3.92;;;;;;;0.97;78.46;94963.25;5105977;28;20058;-68
2024/01/24 01:52:13;;;;;;;8.88;3.75;;;;;;;0.96;78.19;94956.41;5105922;28;20054;-68
2024/01/24 01:54:41;;;;;;;5.78;3.28;;;;;;;0.93;77.77;94967.34;5105820;28;20022;-68
2024/01/24 01:57:11;;;;;;;10.38;3.90;;;;;;;0.95;77.83;94951.38;5105810;28;20020;-68
2024/01/24 01:59:41;;;;;;;7.13;3.35;;;;;;;0.96;77.54;94953.00;5105736;28;20214;-68
2024/01/24 02:02:07;;;;;;;8.55;3.88;;;;;;;0.89;77.57;94939.94;5105677;28;20048;-68
2024/01/24 02:04:32;;;;;;;9.32;3.50;;;;;;;0.90;77.23;94931.06;5105810;28;20368;-68
2024/01/24 02:06:58;;;;;;;9.20;3.75;;;;;;;0.94;76.98;94934.81;5105669;28;20062;-68
2024/01/24 02:09:24;;;;;;;7.03;2.83;;;;;;;0.93;76.85;94940.28;5105695;28;20083;-68
2024/01/24 02:11:49;;;;;;;6.78;3.28;;;;;;;0.95;76.45;94936.41;5105471;28;20024;-68
2024/01/24 02:14:15;;;;;;;8.88;3.90;;;;;;;0.98;76.08;94938.59;5105459;28;20377;-69
2024/01/24 02:16:41;;;;;;;10.63;3.85;;;;;;;0.98;75.90;94935.97;5105490;28;20036;-69
2024/01/24 02:19:06;;;;;;;10.48;3.80;;;;;;;1.03;75.72;94929.25;5105284;28;20323;-69
2024/01/24 02:21:34;;;;;;;11.20;4.70;;;;;;;1.00;75.71;94933.91;5105149;28;20030;-69
2024/01/24 02:24:00;;;;;;;9.02;4.03;;;;;;;0.97;75.75;94934.34;5105246;28;20016;-69
2024/01/24 02:26:26;;;;;;;8.98;4.22;;;;;;;0.96;75.60;94927.53;5105338;28;20214;-68
2024/01/24 02:28:51;;;;;;;11.32;3.55;;;;;;;1.00;75.54;94927.88;5105416;28;20035;-69
2024/01/24 02:31:17;;;;;;;11.07;4.97;;;;;;;0.97;75.47;94934.34;5105191;28;20023;-69
2024/01/24 02:33:42;;;;;;;11.23;4.38;;;;;;;0.92;75.89;94930.84;5104980;28;20024;-69
2024/01/24 02:36:09;;;;;;;6.57;3.60;;;;;;;0.91;75.86;94932.63;5105207;28;20016;-69
2024/01/24 02:38:35;;;;;;;13.95;3.85;;;;;;;0.93;75.68;94935.84;5105119;28;20020;-68
2024/01/24 02:41:01;;;;;;;10.50;4.57;;;;;;;0.92;75.80;94922.97;5105051;28;20210;-69
2024/01/24 02:43:26;;;;;;;11.32;4.10;;;;;;;0.92;75.66;94926.38;5104994;28;20024;-68
2024/01/24 02:45:52;;;;;;;8.57;4.53;;;;;;;0.91;75.60;94916.88;5105216;28;20024;-69
2024/01/24 02:48:17;;;;;;;10.05;4.93;;;;;;;0.95;75.33;94912.78;5105045;28;20020;-69
2024/01/24 02:50:43;;;;;;;11.13;4.43;;;;;;;0.97;75.03;94929.09;5104914;28;20022;-69
2024/01/24 02:53:08;;;;;;;13.52;4.75;;;;;;;0.99;74.75;94929.69;5104855;28;20020;-69
2024/01/24 02:55:33;;;;;;;11.68;4.43;;;;;;;0.95;74.60;94935.63;5104386;28;20020;-68
2024/01/24 02:57:59;;;;;;;8.82;4.13;;;;;;;0.99;74.50;94926.25;5104076;28;20032;-68
2024/01/24 03:00:24;;;;;;;12.52;4.20;;;;;;;0.98;74.41;94920.22;5104392;28;20208;-68
2024/01/24 03:02:50;;;;;;;10.23;4.00;;;;;;;0.95;74.26;94931.16;5104626;28;20095;-68
2024/01/24 03:05:15;;;;;;;9.10;4.07;;;;;;;0.93;74.50;94933.22;5104472;28;20244;-68
2024/01/24 03:07:41;;;;;;;13.02;4.55;;;;;;;0.86;74.76;94927.28;5104468;28;20027;-68
2024/01/24 03:10:08;;;;;;;7.43;3.92;;;;;;;0.88;74.87;94933.09;5104593;28;20039;-68
2024/01/24 03:12:33;;;;;;;8.65;4.40;;;;;;;0.90;74.96;94931.06;5104438;28;20051;-69
2024/01/24 03:14:59;;;;;;;10.27;4.40;;;;;;;0.83;75.09;94934.81;5104118;28;20094;-69
2024/01/24 03:17:25;;;;;;;12.48;4.97;;;;;;;0.83;75.35;94932.97;5104356;28;20024;-69
2024/01/24 03:19:50;;;;;;;8.38;4.15;;;;;;;0.89;75.20;94920.78;5104235;28;20315;-69
2024/01/24 03:22:15;;;;;;;9.52;4.28;;;;;;;0.85;75.18;94911.75;5104204;28;20108;-68
2024/01/24 03:24:41;;;;;;;8.30;3.72;;;;;;;0.85;75.27;94922.25;5104367;28;20024;-68
2024/01/24 03:27:06;;;;;;;7.25;4.22;;;;;;;0.86;75.30;94922.03;5103997;28;20024;-66
2024/01/24 03:29:32;;;;;;;14.35;4.93;;;;;;;0.83;75.42;94917.22;5102948;28;20024;-67
2024/01/24 03:31:57;;;;;;;10.57;3.53;;;;;;;0.87;75.49;94894.75;5104231;28;20098;-67
2024/01/24 03:34:23;;;;;;;10.77;4.82;;;;;;;0.82;75.52;94907.75;5104122;28;20031;-67
2024/01/24 03:36:48;;;;;;;8.68;4.20;;;;;;;0.84;75.75;94905.72;5103991;28;20107;-67
2024/01/24 03:39:14;;;;;;;9.13;4.78;;;;;;;0.83;75.49;94929.56;5103901;28;20047;-67
2024/01/24 03:41:40;;;;;;;10.10;4.55;;;;;;;0.81;75.33;94927.16;5103898;28;20031;-67
2024/01/24 03:44:05;;;;;;;9.50;4.38;;;;;;;0.82;75.20;94933.22;5103948;28;20020;-67
2024/01/24 03:46:31;;;;;;;11.45;4.30;;;;;;;0.82;75.19;94928.75;5103692;28;20245;-67
2024/01/24 03:48:56;;;;;;;9.30;4.13;;;;;;;0.91;75.47;94922.13;5103546;28;20076;-67
2024/01/24 03:51:22;;;;;;;8.50;4.30;;;;;;;0.86;74.45;94929.13;5103755;28;20038;-67
2024/01/24 03:53:47;;;;;;;11.95;5.05;;;;;;;0.81;74.83;94921.91;5103603;28;20099;-68
2024/01/24 03:56:13;;;;;;;9.73;4.13;;;;;;;0.80;74.58;94933.44;5103287;28;20028;-67
2024/01/24 03:58:38;;;;;;;12.70;4.63;;;;;;;0.82;74.49;94913.00;5103526;28;20087;-67
2024/01/24 04:01:06;;;;;;;13.00;4.25;;;;;;;0.75;74.60;94905.25;5103427;28;20081;-67
2024/01/24 04:03:32;;;;;;;6.30;3.35;;;;;;;0.77;74.65;94908.44;5103395;28;20024;-67
2024/01/24 04:05:57;;;;;;;7.88;3.88;;;;;;;0.74;74.54;94910.72;5103294;28;20020;-67
2024/01/24 04:08:23;;;;;;;10.95;4.65;;;;;;;0.76;74.51;94904.22;5103592;28;20233;-67
2024/01/24 04:10:48;;;;;;;9.63;3.90;;;;;;;0.76;74.14;94921.78;5103096;28;20016;-67
2024/01/24 04:13:14;;;;;;;6.85;4.03;;;;;;;0.75;74.21;94934.13;5103340;28;20035;-67
2024/01/24 04:15:39;;;;;;;6.70;3.58;;;;;;;0.86;73.92;94944.88;5103311;28;20039;-67
2024/01/24 04:18:05;;;;;;;9.55;4.28;;;;;;;0.76;74.04;94943.56;5103193;28;20031;-67
2024/01/24 04:20:30;;;;;;;10.00;4.13;;;;;;;0.82;73.73;94948.97;5103164;28;20020;-68
2024/01/24 04:22:56;;;;;;;7.43;4.15;;;;;;;0.76;74.16;94955.91;5103331;28;20058;-68
2024/01/24 04:25:21;;;;;;;12.43;4.45;;;;;;;0.75;74.58;94957.72;5103345;28;20068;-68
2024/01/24 04:27:47;;;;;;;11.98;3.97;;;;;;;0.75;74.45;94954.28;5103160;28;20035;-68
2024/01/24 04:30:12;;;;;;;9.02;4.25;;;;;;;0.74;74.52;94947.47;5103211;28;20027;-68
2024/01/24 04:32:38;;;;;;;9.98;4.13;;;;;;;0.70;74.69;94957.59;5103273;28;20032;-67
2024/01/24 04:35:04;;;;;;;16.38;4.15;;;;;;;0.70;74.59;94952.34;5102862;28;20028;-68
2024/01/24 04:37:29;;;;;;;8.05;3.92;;;;;;;0.71;74.38;94953.97;5103055;28;20087;-68
2024/01/24 04:39:55;;;;;;;7.65;3.80;;;;;;;0.70;74.28;94965.47;5103180;28;20035;-68
2024/01/24 04:42:20;;;;;;;8.88;3.70;;;;;;;0.72;74.28;94965.25;5102926;28;20020;-67
2024/01/24 04:44:46;;;;;;;10.48;3.67;;;;;;;0.73;74.11;94967.66;5102968;28;20073;-68
2024/01/24 04:47:14;;;;;;;11.55;5.13;;;;;;;0.73;74.18;94969.47;5102832;28;20023;-68
2024/01/24 04:49:40;;;;;;;9.13;3.55;;;;;;;0.60;74.46;94954.72;5102677;28;20024;-68
2024/01/24 04:52:05;;;;;;;8.77;4.30;;;;;;;0.58;74.84;94964.63;5102802;28;20089;-68
2024/01/24 04:54:34;;;;;;;11.38;4.45;;;;;;;0.60;74.73;94968.63;5102779;28;20255;-68
2024/01/24 04:57:01;;;;;;;12.05;4.55;;;;;;;0.56;74.98;94974.53;5102754;28;20028;-68
2024/01/24 04:59:28;;;;;;;9.57;4.07;;;;;;;0.60;75.05;94973.88;5102516;28;20039;-68
2024/01/24 05:01:53;;;;;;;9.85;4.75;;;;;;;0.58;74.67;94975.13;5102720;28;20043;-68
2024/01/24 05:04:19;;;;;;;11.57;3.70;;;;;;;0.57;75.03;94969.09;5102840;28;20015;-67
2024/01/24 05:06:44;;;;;;;11.38;4.88;;;;;;;0.55;75.22;94971.13;5102682;28;20042;-67
2024/01/24 05:09:10;;;;;;;12.85;4.28;;;;;;;0.56;75.33;94982.41;5102646;28;20016;-68
2024/01/24 05:11:35;;;;;;;8.90;4.45;;;;;;;0.52;75.74;94984.69;5102713;28;20223;-68
2024/01/24 05:14:01;;;;;;;8.23;3.90;;;;;;;0.54;75.68;95001.00;5102591;28;20038;-68
2024/01/24 05:16:29;;;;;;;11.40;4.88;;;;;;;0.55;75.64;94999.16;5102680;28;20098;-67
2024/01/24 05:18:55;;;;;;;10.07;4.13;;;;;;;0.56;75.52;95008.66;5102424;28;20090;-68
2024/01/24 05:21:20;;;;;;;10.93;5.03;;;;;;;0.54;75.75;95005.44;5102679;28;20027;-68
2024/01/24 05:23:46;;;;;;;9.38;5.15;;;;;;;0.54;75.77;95005.44;5106684;28;20337;-67
2024/01/24 05:26:11;;;;;;;10.75;4.15;;;;;;;0.53;75.75;95014.31;5106411;28;20031;-68
2024/01/24 05:28:37;;;;;;;8.25;3.83;;;;;;;0.52;75.54;94991.75;5106668;28;20048;-68
2024/01/24 05:31:02;;;;;;;11.30;4.60;;;;;;;0.49;76.01;95019.25;5106373;28;20057;-68
2024/01/24 05:33:28;;;;;;;9.98;4.60;;;;;;;0.49;76.17;95008.75;5106296;28;20218;-67
2024/01/24 05:35:53;;;;;;;9.05;4.20;;;;;;;0.49;75.93;95019.25;5106570;28;20091;-67
2024/01/24 05:38:19;;;;;;;8.85;4.55;;;;;;;0.48;75.99;95007.13;5106353;28;20043;-67
2024/01/24 05:40:44;;;;;;;14.23;4.57;;;;;;;0.54;75.69;95002.81;5106246;28;20027;-68
2024/01/24 05:43:10;;;;;;;10.98;5.03;;;;;;;0.57;75.75;95005.81;5106133;28;20024;-68
2024/01/24 05:45:35;;;;;;;8.95;4.00;;;;;;;0.59;75.50;95006.41;5106133;28;20039;-69
2024/01/24 05:48:00;;;;;;;9.02;4.55;;;;;;;0.58;75.38;95002.16;5106182;28;20027;-68
2024/01/24 05:50:26;;;;;;;12.23;5.03;;;;;;;0.58;75.81;94991.66;5106117;28;20028;-68
2024/01/24 05:52:52;;;;;;;9.02;4.55;;;;;;;0.57;75.84;95000.56;5106164;28;20024;-68
2024/01/24 05:55:20;;;;;;;14.07;5.15;;;;;;;0.59;75.62;94998.53;5105780;28;20085;-68
2024/01/24 05:57:46;;;;;;;9.43;4.53;;;;;;;0.58;75.53;95006.59;5106043;28;20575;-68
2024/01/24 06:00:14;;;;;;;8.85;4.57;;;;;;;0.59;75.87;94995.91;5105841;28;20028;-69
2024/01/24 06:02:39;;;;;;;10.25;4.38;;;;;;;0.58;75.96;94990.88;5105525;28;20242;-69
2024/01/24 06:05:05;;;;;;;8.60;4.30;;;;;;;0.60;75.59;94994.06;5105725;28;20036;-69
2024/01/24 06:07:31;;;;;;;9.63;4.78;;;;;;;0.54;75.88;94995.75;5105598;28;20042;-67
2024/01/24 06:09:57;;;;;;;12.23;4.53;;;;;;;0.53;76.08;94991.53;5105555;28;20043;-71
2024/01/24 06:12:22;;;;;;;12.65;4.88;;;;;;;0.57;75.66;94989.25;5105788;28;20024;-73
2024/01/24 06:14:48;;;;;;;7.60;3.95;;;;;;;0.53;75.97;95001.22;5105479;28;20020;-72
2024/01/24 06:17:13;;;;;;;10.15;4.22;;;;;;;0.53;75.97;94999.41;5105505;28;20053;-72
2024/01/24 06:19:39;;;;;;;11.60;4.28;;;;;;;0.53;76.14;94985.47;5105565;28;20032;-72
2024/01/24 06:22:04;;;;;;;11.50;4.38;;;;;;;0.53;76.00;94988.91;5105419;28;20069;-72
2024/01/24 06:24:31;;;;;;;11.02;4.47;;;;;;;0.54;75.66;94995.75;5105384;28;20241;-73
2024/01/24 06:26:57;;;;;;;12.55;4.43;;;;;;;0.62;75.71;94991.22;5104122;28;20208;-73
2024/01/24 06:29:22;;;;;;;8.50;4.18;;;;;;;0.55;75.53;94992.13;5105586;28;20027;-73
2024/01/24 06:31:48;;;;;;;12.32;4.38;;;;;;;0.62;75.31;94988.59;5105222;28;20065;-73
2024/01/24 06:34:13;;;;;;;8.45;3.88;;;;;;;0.58;75.51;94978.53;5104989;28;20020;-72
2024/01/24 06:36:39;;;;;;;10.52;4.70;;;;;;;0.50;75.74;94983.31;5105107;28;20099;-72
2024/01/24 06:39:06;;;;;;;6.25;3.70;;;;;;;0.46;75.65;94993.44;5105219;28;20318;-73
2024/01/24 06:41:31;;;;;;;13.07;4.97;;;;;;;0.50;75.77;94988.56;5104920;28;20330;-71
2024/01/24 06:43:57;;;;;;;10.43;3.80;;;;;;;0.49;75.69;94987.75;5103698;28;20023;-71
2024/01/24 06:46:23;;;;;;;7.40;3.38;;;;;;;0.60;75.28;94987.00;5103153;28;20046;-72
2024/01/24 06:48:49;;;;;;;9.75;4.20;;;;;;;0.61;75.32;94995.66;5104104;28;20059;-72
2024/01/24 06:51:15;;;;;;;8.25;3.97;;;;;;;0.56;75.41;94988.47;5104999;28;20026;-72
2024/01/24 06:53:41;;;;;;;8.65;4.05;;;;;;;0.60;75.02;94973.88;5105093;28;20028;-72
2024/01/24 06:56:08;;;;;;;11.02;3.42;;;;;;;0.68;74.60;94977.22;5104359;28;20020;-72
2024/01/24 06:58:34;;;;;;;9.07;4.60;;;;;;;0.67;74.42;94983.47;5103472;28;20020;-72
2024/01/24 07:00:59;;;;;;;9.02;3.92;;;;;;;0.71;74.24;94974.13;5104193;28;20111;-72
2024/01/24 07:03:24;;;;;;;10.52;4.18;;;;;;;0.78;73.98;94980.09;5104651;28;20385;-72
2024/01/24 07:05:51;;;;;;;10.82;3.53;;;;;;;0.84;73.66;94970.53;5104385;28;20016;-71
2024/01/24 07:08:16;;;;;;;12.02;4.00;;;;;;;0.83;73.77;94977.59;5104277;28;20036;-71
2024/01/24 07:10:42;;;;;;;9.25;4.18;;;;;;;0.96;73.38;94977.41;5104319;28;20093;-71
2024/01/24 07:13:07;;;;;;;10.60;3.78;;;;;;;1.02;73.19;94970.47;5104378;28;20095;-72
2024/01/24 07:15:32;;;;;;;10.93;4.25;;;;;;;1.08;72.71;94966.94;5104252;28;20028;-72
2024/01/24 07:17:58;;;;;;;10.27;4.10;;;;;;;1.15;72.72;94969.44;5104375;28;20027;-71
2024/01/24 07:20:23;;;;;;;10.05;3.55;;;;;;;1.17;72.03;94978.69;5104548;28;20083;-72
2024/01/24 07:22:49;;;;;;;8.02;3.30;;;;;;;1.15;71.77;94970.22;5104169;28;20016;-72
2024/01/24 07:25:19;;;;;;;7.40;3.10;;;;;;;1.19;71.70;94986.34;5104314;28;20117;-71
2024/01/24 07:27:45;;;;;;;16.08;4.22;;;;;;;1.21;71.50;94984.28;5103019;28;20035;-72
2024/01/24 07:30:10;;;;;;;9.45;3.50;;;;;;;1.26;71.51;94989.66;5104169;28;20020;-71
2024/01/24 07:32:39;;;;;;;7.45;3.25;;;;;;;1.31;71.18;94989.00;5103977;28;20188;-71
2024/01/24 07:35:05;;;;;;;11.45;3.60;;;;;;;1.29;71.16;95010.22;5103976;28;20211;-75
2024/01/24 07:37:30;;;;;;;7.15;3.42;;;;;;;1.35;70.83;94998.03;5103876;28;20054;-75
2024/01/24 07:39:55;;;;;;;9.40;3.78;;;;;;;1.35;71.11;95013.78;5104012;28;20023;-75
2024/01/24 07:42:21;;;;;;;11.05;4.28;;;;;;;1.40;71.39;95013.88;5104107;28;20061;-75
2024/01/24 07:44:46;;;;;;;9.93;4.00;;;;;;;1.42;70.68;95005.78;5103225;28;20023;-75
2024/01/24 07:47:12;;;;;;;12.15;4.00;;;;;;;1.39;70.56;95020.97;5103670;28;20027;-75
2024/01/24 07:49:38;;;;;;;11.32;3.70;;;;;;;1.52;70.64;95016.53;5103617;28;20047;-75
2024/01/24 07:52:04;;;;;;;7.95;3.45;;;;;;;1.59;70.19;95027.75;5103596;28;20023;-67
2024/01/24 07:54:29;;;;;;;11.48;4.15;;;;;;;1.56;70.08;95020.31;5103632;28;20028;-67
2024/01/24 07:56:55;;;;;;;6.60;2.67;;;;;;;1.54;70.38;95015.28;5103713;28;20024;-67
2024/01/24 07:59:21;;;;;;;8.05;3.97;;;;;;;1.57;70.58;95014.03;5103293;28;20238;-67
2024/01/24 08:01:47;;;;;;;9.48;3.67;;;;;;;1.64;70.01;95027.06;5103326;28;20227;-67
2024/01/24 08:04:13;;;;;;;9.02;4.05;;;;;;;1.61;70.26;95025.69;5103372;28;20042;-68
2024/01/24 08:06:39;;;;;;;7.22;3.90;;;;;;;1.66;69.90;95017.13;5103543;28;20047;-68
2024/01/24 08:09:04;;;;;;;8.05;4.07;;;;;;;1.82;70.26;95015.63;5103200;28;20069;-67
2024/01/24 08:11:30;;;;;;;11.05;4.10;;;;;;;1.83;69.37;95023.25;5103352;28;20055;-67
2024/01/24 08:13:55;;;;;;;8.80;4.15;;;;;;;1.95;69.27;95018.00;5103358;28;20016;-68
2024/01/24 08:16:21;;;;;;;10.50;4.35;;;;;;;2.05;69.52;95020.84;5103106;28;20324;-68
2024/01/24 08:18:48;;;;;;;9.02;4.45;;;;;;;2.04;68.92;95034.25;5103334;28;20027;-67
2024/01/24 08:21:14;;;;;;;11.00;5.20;;;;;;;2.10;68.98;95020.97;5103113;28;20020;-68
2024/01/24 08:23:39;;;;;;;12.57;5.80;;;;;;;2.12;69.55;95026.00;5103146;28;20024;-68
2024/01/24 08:26:04;;;;;;;11.98;4.50;;;;;;;2.20;69.53;95034.34;5103051;28;20012;-67
2024/01/24 08:28:30;;;;;;;8.93;3.95;;;;;;;2.03;68.95;95038.69;5102932;28;20379;-67
2024/01/24 08:30:55;;;;;;;8.13;4.10;;;;;;;2.10;69.81;95054.38;5102933;28;20039;-67
2024/01/24 08:33:21;;;;;;;13.40;5.60;;;;;;;2.04;69.51;95040.31;5103255;28;20047;-67
2024/01/24 08:35:47;;;;;;;15.43;5.45;;;;;;;2.06;69.68;95035.63;5102972;28;20034;-67
2024/01/24 08:38:12;;;;;;;13.52;5.85;;;;;;;2.10;69.20;95034.13;5102951;28;20222;-67
2024/01/24 08:40:39;;;;;;;11.90;4.65;;;;;;;2.01;69.53;95032.88;5101496;28;20024;-68
2024/01/24 08:43:04;;;;;;;10.57;4.60;;;;;;;2.04;69.53;95021.91;5102734;28;20038;-67
2024/01/24 08:45:31;;;;;;;12.07;4.13;;;;;;;2.07;69.48;95021.41;5103044;28;20020;-67
2024/01/24 08:47:57;;;;;;;15.27;6.30;;;;;;;2.08;69.06;95009.88;5102972;28;20020;-67
2024/01/24 08:50:22;;;;;;;12.27;5.40;;;;;;;2.13;69.25;95028.38;5101771;28;20032;-68
2024/01/24 08:52:50;;;;;;;8.82;4.43;;;;;;;2.11;68.89;95012.03;5102736;28;20084;-67
2024/01/24 08:55:16;;;;;;;5.63;3.53;;;;;;;2.14;68.38;95003.69;5102606;28;20307;-67
2024/01/24 08:57:42;;;;;;;8.93;4.13;;;;;;;2.14;69.21;95006.34;5105284;28;20089;-67
2024/01/24 09:00:09;;;;;;;11.93;5.20;;;;;;;2.26;68.12;95005.50;5106902;28;20064;-67
2024/01/24 09:02:34;;;;;;;11.18;4.97;;;;;;;2.30;68.16;95006.63;5105534;28;20113;-67
2024/01/24 09:05:00;;;;;;;11.02;4.53;;;;;;;2.34;68.72;95002.50;5105715;28;20317;-67
2024/01/24 09:07:25;;;;;;;9.57;4.30;;;;;;;2.26;67.93;95006.31;5106908;28;20091;-67
2024/01/24 09:09:51;;;;;;;13.18;4.00;;;;;;;2.27;67.58;95022.88;5106820;28;20027;-68
2024/01/24 09:12:17;;;;;;;11.23;4.20;;;;;;;2.14;67.96;95016.06;5106731;28;20048;-67
2024/01/24 09:14:44;;;;;;;8.93;4.63;;;;;;;2.17;67.97;95023.47;5106670;28;20069;-67
2024/01/24 09:17:11;;;;;;;11.73;5.38;;;;;;;2.15;68.43;95018.44;5106643;28;20061;-67
2024/01/24 09:19:36;;;;;;;10.85;4.80;;;;;;;2.24;68.18;95018.06;5106398;28;20051;-67
2024/01/24 09:22:02;;;;;;;11.90;4.70;;;;;;;2.26;68.33;95018.66;5106150;28;20024;-67
2024/01/24 09:24:27;;;;;;;13.93;6.13;;;;;;;2.29;69.20;95016.34;5106173;28;20027;-68
2024/01/24 09:26:53;;;;;;;17.73;6.72;;;;;;;2.28;68.67;95006.06;5106433;28;20091;-67
2024/01/24 09:29:18;;;;;;;16.67;6.40;;;;;;;2.32;68.62;95000.13;5106225;28;20313;-68
2024/01/24 09:31:45;;;;;;;15.10;6.78;;;;;;;2.29;69.21;95005.84;5106222;28;20133;-68
2024/01/24 09:34:16;;;;;;;17.23;6.35;;;;;;;2.31;69.07;94992.44;5106145;28;20032;-67
2024/01/24 09:36:42;;;;;;;11.40;4.77;;;;;;;2.35;68.38;94988.31;5106422;28;20051;-68
2024/01/24 09:39:09;;;;;;;17.00;5.68;;;;;;;2.35;67.73;94989.09;5106324;28;20081;-68
2024/01/24 09:41:39;;;;;;;11.43;5.10;;;;;;;2.26;67.86;94984.44;5106072;28;20057;-68
2024/01/24 09:44:05;;;;;;;12.63;5.18;;;;;;;2.33;68.46;94987.75;5106094;28;20307;-68
2024/01/24 09:46:34;;;;;;;17.73;6.82;;;;;;;2.37;67.63;94971.25;5106096;28;20030;-67
2024/01/24 09:49:01;;;;;;;17.23;6.38;;;;;;;2.37;67.72;94968.63;5105862;28;20270;-68
2024/01/24 09:51:31;;;;;;;11.85;5.47;;;;;;;2.43;67.61;94964.28;5105978;28;20020;-76
2024/01/24 09:54:00;;;;;;;13.80;5.85;;;;;;;2.50;67.20;94970.19;5105980;28;20065;-76
2024/01/24 09:56:26;;;;;;;12.07;4.95;;;;;;;2.46;66.88;94952.47;5105900;28;20054;-76
2024/01/24 09:58:51;;;;;;;14.65;5.00;;;;;;;2.45;67.12;94956.94;5106067;28;20020;-76
2024/01/24 10:01:18;;;;;;;12.80;5.72;;;;;;;2.44;67.03;94957.16;5105780;28;20044;-76
2024/01/24 10:03:45;;;;;;;18.13;6.22;;;;;;;2.46;67.31;94966.41;5105773;28;20016;-76
2024/01/24 10:06:13;;;;;;;15.13;7.13;;;;;;;2.52;67.37;94952.31;5104240;28;20016;-76
2024/01/24 10:08:38;;;;;;;17.92;5.90;;;;;;;2.58;67.66;94943.47;5104865;28;20263;-76
2024/01/24 10:11:05;;;;;;;13.80;4.97;;;;;;;2.57;66.47;94949.00;5105495;28;20023;-76
2024/01/24 10:13:31;;;;;;;13.27;6.28;;;;;;;2.60;66.93;94928.25;5105477;28;20125;-76
2024/01/24 10:15:59;;;;;;;15.40;6.10;;;;;;;2.61;67.15;94940.38;5105212;28;20187;-76
2024/01/24 10:18:24;;;;;;;13.10;6.57;;;;;;;2.63;67.06;94934.91;5105233;28;20035;-76
2024/01/24 10:20:49;;;;;;;11.32;6.35;;;;;;;2.59;67.13;94931.94;5105134;28;20016;-74
2024/01/24 10:23:15;;;;;;;14.18;5.00;;;;;;;2.64;66.59;94919.91;5105279;28;20032;-75
2024/01/24 10:25:41;;;;;;;12.05;5.22;;;;;;;2.61;66.58;94921.97;5105159;28;20088;-75
2024/01/24 10:28:14;;;;;;;12.30;5.97;;;;;;;2.63;66.12;94920.94;5104813;28;20095;-74
2024/01/24 10:30:41;;;;;;;12.77;5.28;;;;;;;2.63;66.32;94919.09;5103882;28;20032;-74
2024/01/24 10:33:11;;;;;;;13.27;7.18;;;;;;;2.69;66.79;94925.25;5105165;28;20024;-74
2024/01/24 10:35:36;;;;;;;13.07;6.70;;;;;;;2.71;66.94;94910.03;5104876;28;20034;-74
2024/01/24 10:38:02;;;;;;;14.52;6.78;;;;;;;2.70;67.87;94906.56;5104450;28;20028;-74
2024/01/24 10:40:28;;;;;;;14.07;6.85;;;;;;;2.78;68.23;94919.34;5105174;28;20129;-75
2024/01/24 10:43:00;;;;;;;20.67;7.88;;;;;;;2.86;68.21;94925.28;5105222;28;20032;-74
2024/01/24 10:45:31;;;;;;;12.10;5.25;;;;;;;2.90;67.59;94892.94;5103887;28;20095;-74
2024/01/24 10:47:58;;;;;;;17.45;6.53;;;;;;;2.90;66.80;94895.59;5104613;28;20037;-74
2024/01/24 10:50:24;;;;;;;18.13;7.95;;;;;;;2.91;68.09;94888.47;5104830;28;20051;-75
2024/01/24 10:52:51;;;;;;;20.02;8.35;;;;;;;3.01;68.00;94892.09;5104676;28;20128;-75
2024/01/24 10:55:17;;;;;;;26.50;7.53;;;;;;;3.03;68.36;94885.75;5104530;28;20066;-75
2024/01/24 10:57:44;;;;;;;22.58;7.93;;;;;;;3.03;67.91;94881.28;5104447;28;20020;-75
2024/01/24 11:00:11;;;;;;;15.18;6.90;;;;;;;3.08;67.61;94885.84;5104652;28;20023;-75
2024/01/24 11:02:41;;;;;;;18.10;8.13;;;;;;;3.10;67.72;94867.97;5103110;28;20223;-75
2024/01/24 11:05:11;;;;;;;16.25;6.85;;;;;;;3.21;67.75;94859.16;5104300;28;20020;-75
2024/01/24 11:07:43;;;;;;;17.25;6.18;;;;;;;3.26;67.03;94851.34;5104226;28;20030;-75
2024/01/24 11:10:28;;;;;;;17.35;7.43;;;;;;;3.36;66.81;94851.47;5104139;28;20230;-75
2024/01/24 11:12:53;;;;;;;15.73;7.25;;;;;;;3.31;65.95;94850.59;5104550;28;20046;-75
2024/01/24 11:15:20;;;;;;;16.13;8.60;;;;;;;3.24;66.61;94848.16;5103988;28;20227;-75
2024/01/24 11:18:25;;;;;;;16.02;7.10;;;;;;;3.40;66.43;94857.88;5102826;28;20050;-76
2024/01/24 11:20:56;;;;;;;14.00;6.13;;;;;;;3.48;65.47;94856.66;5102111;28;20024;-75
2024/01/24 11:23:35;;;;;;;18.17;7.13;;;;;;;3.47;64.19;94851.63;5103883;28;20028;-74
2024/01/24 11:26:01;;;;;;;13.20;6.20;;;;;;;3.35;64.36;94852.50;5103879;28;20227;-75
2024/01/24 11:28:26;;;;;;;14.13;5.68;;;;;;;3.35;63.83;94844.59;5102595;28;20098;-75
2024/01/24 11:30:52;;;;;;;19.05;6.60;;;;;;;3.37;64.46;94837.25;5104157;28;20016;-75